Sheridan, Oregon
Current Conditions -  °F | °C
As of 2:53 PM on Tuesday 25 Nov 2014 (Local Time) from KMMV Reporting Station
Scattered Clouds Scattered Clouds  
Wind Chill: 61°   Ceiling: Unl
Heat Index: 61°   Visibility: 10mi
Dew Point: 56°   Wind: 10mph
Humidity: 83%   Direction: 230°SW
Pressure: 30.32"   Gusts: NA
Location:  45.1°N, 123.39°W
Report Text: KMMV 252253Z AUTO 23009KT 10SM SCT060 16/13 A3032 RMK AO2 SLP266 T01610133
Loading
Personal Weather Stations






























Interactive Weather Map New forecast layout! Learn more

10-Day Weather Forecast

Advertisements
Track Severe Weather on mobile